sensor_id;sensor_type;location;lat;lon;timestamp;temperature;humidity
19397;DHT22;9834;48.076;11.878;2024-01-30T00:02:19;-1.80;99.90
19397;DHT22;9834;48.076;11.878;2024-01-30T00:04:49;-1.80;99.90
19397;DHT22;9834;48.076;11.878;2024-01-30T00:07:16;-1.50;99.90
19397;DHT22;9834;48.076;11.878;2024-01-30T00:09:46;-1.90;99.90
19397;DHT22;9834;48.076;11.878;2024-01-30T00:12:16;-1.90;99.90
19397;DHT22;9834;48.076;11.878;2024-01-30T00:14:46;-1.90;99.90
19397;DHT22;9834;48.076;11.878;2024-01-30T00:17:15;-1.90;99.90
19397;DHT22;9834;48.076;11.878;2024-01-30T00:19:44;-1.90;99.90
19397;DHT22;9834;48.076;11.878;2024-01-30T00:22:13;-1.90;99.90
19397;DHT22;9834;48.076;11.878;2024-01-30T00:24:49;-1.90;99.90
19397;DHT22;9834;48.076;11.878;2024-01-30T00:27:17;-2.00;99.90
19397;DHT22;9834;48.076;11.878;2024-01-30T00:29:44;-1.70;99.90
19397;DHT22;9834;48.076;11.878;2024-01-30T00:32:17;-2.00;99.90
19397;DHT22;9834;48.076;11.878;2024-01-30T00:34:46;-2.00;99.90
19397;DHT22;9834;48.076;11.878;2024-01-30T00:37:14;-2.00;99.90
19397;DHT22;9834;48.076;11.878;2024-01-30T00:39:42;-1.90;99.90
19397;DHT22;9834;48.076;11.878;2024-01-30T00:42:09;-1.90;99.90
19397;DHT22;9834;48.076;11.878;2024-01-30T00:44:37;-2.00;99.90
19397;DHT22;9834;48.076;11.878;2024-01-30T00:47:05;-1.90;99.90
19397;DHT22;9834;48.076;11.878;2024-01-30T00:49:34;-1.90;99.90
19397;DHT22;9834;48.076;11.878;2024-01-30T00:52:04;-1.90;99.90
19397;DHT22;9834;48.076;11.878;2024-01-30T00:54:31;-1.90;99.90
19397;DHT22;9834;48.076;11.878;2024-01-30T00:56:58;-1.90;99.90
19397;DHT22;9834;48.076;11.878;2024-01-30T00:59:25;-1.90;99.90
19397;DHT22;9834;48.076;11.878;2024-01-30T01:01:53;-1.90;99.90
19397;DHT22;9834;48.076;11.878;2024-01-30T01:04:20;-1.90;99.90
19397;DHT22;9834;48.076;11.878;2024-01-30T01:06:48;-1.90;99.90
19397;DHT22;9834;48.076;11.878;2024-01-30T01:09:17;-2.00;99.90
19397;DHT22;9834;48.076;11.878;2024-01-30T01:11:44;-2.00;99.90
19397;DHT22;9834;48.076;11.878;2024-01-30T01:14:13;-2.10;99.90
19397;DHT22;9834;48.076;11.878;2024-01-30T01:16:41;-1.70;99.90
19397;DHT22;9834;48.076;11.878;2024-01-30T01:19:08;-2.20;99.90
19397;DHT22;9834;48.076;11.878;2024-01-30T01:21:37;-2.10;99.90
19397;DHT22;9834;48.076;11.878;2024-01-30T01:24:05;-2.10;99.90
19397;DHT22;9834;48.076;11.878;2024-01-30T01:26:34;-2.10;99.90
19397;DHT22;9834;48.076;11.878;2024-01-30T01:29:01;-2.10;99.90
19397;DHT22;9834;48.076;11.878;2024-01-30T01:31:35;-2.10;99.90
19397;DHT22;9834;48.076;11.878;2024-01-30T01:34:09;-2.10;99.90
19397;DHT22;9834;48.076;11.878;2024-01-30T01:36:37;-2.10;99.90
19397;DHT22;9834;48.076;11.878;2024-01-30T01:39:06;-2.10;99.90
19397;DHT22;9834;48.076;11.878;2024-01-30T01:41:39;-2.10;99.90
19397;DHT22;9834;48.076;11.878;2024-01-30T01:44:06;-2.20;99.90
19397;DHT22;9834;48.076;11.878;2024-01-30T01:46:37;-2.20;99.90
19397;DHT22;9834;48.076;11.878;2024-01-30T01:49:05;-2.20;99.90
19397;DHT22;9834;48.076;11.878;2024-01-30T01:51:35;-2.20;99.90
19397;DHT22;9834;48.076;11.878;2024-01-30T01:54:09;-2.30;99.90
19397;DHT22;9834;48.076;11.878;2024-01-30T01:56:39;-2.30;99.90
19397;DHT22;9834;48.076;11.878;2024-01-30T01:59:07;-2.20;99.90
19397;DHT22;9834;48.076;11.878;2024-01-30T02:01:37;-2.30;99.90
19397;DHT22;9834;48.076;11.878;2024-01-30T02:04:07;-2.30;99.90
19397;DHT22;9834;48.076;11.878;2024-01-30T02:06:35;-2.30;99.90
19397;DHT22;9834;48.076;11.878;2024-01-30T02:09:05;-2.30;99.90
19397;DHT22;9834;48.076;11.878;2024-01-30T02:11:31;-2.30;99.90
19397;DHT22;9834;48.076;11.878;2024-01-30T02:14:27;-2.30;99.90
19397;DHT22;9834;48.076;11.878;2024-01-30T02:16:55;-2.30;99.90
19397;DHT22;9834;48.076;11.878;2024-01-30T02:19:22;-2.30;99.90
19397;DHT22;9834;48.076;11.878;2024-01-30T02:21:55;-2.30;99.90
19397;DHT22;9834;48.076;11.878;2024-01-30T02:24:22;-2.30;99.90
19397;DHT22;9834;48.076;11.878;2024-01-30T02:26:49;-2.30;99.90
19397;DHT22;9834;48.076;11.878;2024-01-30T02:29:16;-2.30;99.90
19397;DHT22;9834;48.076;11.878;2024-01-30T02:31:44;-2.30;99.90
19397;DHT22;9834;48.076;11.878;2024-01-30T02:34:13;-2.30;99.90
19397;DHT22;9834;48.076;11.878;2024-01-30T02:36:42;-2.30;99.90
19397;DHT22;9834;48.076;11.878;2024-01-30T02:39:14;-2.40;99.90
19397;DHT22;9834;48.076;11.878;2024-01-30T02:41:41;-2.40;99.90
19397;DHT22;9834;48.076;11.878;2024-01-30T02:44:10;-2.40;99.90
19397;DHT22;9834;48.076;11.878;2024-01-30T02:46:39;-2.40;99.90
19397;DHT22;9834;48.076;11.878;2024-01-30T02:49:07;-2.40;99.90
19397;DHT22;9834;48.076;11.878;2024-01-30T02:51:34;-2.50;99.90
19397;DHT22;9834;48.076;11.878;2024-01-30T02:54:01;-2.50;99.90
19397;DHT22;9834;48.076;11.878;2024-01-30T02:56:30;-2.10;99.90
19397;DHT22;9834;48.076;11.878;2024-01-30T02:58:57;-2.40;99.90
19397;DHT22;9834;48.076;11.878;2024-01-30T03:01:24;-2.40;99.90
19397;DHT22;9834;48.076;11.878;2024-01-30T03:03:53;-2.50;99.90
19397;DHT22;9834;48.076;11.878;2024-01-30T03:06:20;-2.50;99.90
19397;DHT22;9834;48.076;11.878;2024-01-30T03:08:48;-2.60;99.90
19397;DHT22;9834;48.076;11.878;2024-01-30T03:11:15;-2.60;99.90
19397;DHT22;9834;48.076;11.878;2024-01-30T03:13:46;-2.60;99.90
19397;DHT22;9834;48.076;11.878;2024-01-30T03:16:13;-2.60;99.90
19397;DHT22;9834;48.076;11.878;2024-01-30T03:18:40;-2.60;99.90
19397;DHT22;9834;48.076;11.878;2024-01-30T03:21:07;-2.60;99.90
19397;DHT22;9834;48.076;11.878;2024-01-30T03:23:34;-2.50;99.90
19397;DHT22;9834;48.076;11.878;2024-01-30T03:26:04;-2.50;99.90
19397;DHT22;9834;48.076;11.878;2024-01-30T03:28:32;-2.50;99.90
19397;DHT22;9834;48.076;11.878;2024-01-30T03:31:00;-1.90;99.90
19397;DHT22;9834;48.076;11.878;2024-01-30T03:33:28;-2.40;99.90
19397;DHT22;9834;48.076;11.878;2024-01-30T03:35:56;-2.40;99.90
19397;DHT22;9834;48.076;11.878;2024-01-30T03:38:24;-2.40;99.90
19397;DHT22;9834;48.076;11.878;2024-01-30T03:40:52;-2.50;99.90
19397;DHT22;9834;48.076;11.878;2024-01-30T03:43:20;-2.30;99.90
19397;DHT22;9834;48.076;11.878;2024-01-30T03:45:50;-2.50;99.90
19397;DHT22;9834;48.076;11.878;2024-01-30T03:48:19;-2.50;99.90
19397;DHT22;9834;48.076;11.878;2024-01-30T03:50:48;-2.50;99.90
19397;DHT22;9834;48.076;11.878;2024-01-30T03:53:15;-2.50;99.90
19397;DHT22;9834;48.076;11.878;2024-01-30T03:55:43;-2.50;99.90
19397;DHT22;9834;48.076;11.878;2024-01-30T03:58:10;-2.50;99.90
19397;DHT22;9834;48.076;11.878;2024-01-30T04:00:37;-2.60;99.90
19397;DHT22;9834;48.076;11.878;2024-01-30T04:03:04;-2.60;99.90
19397;DHT22;9834;48.076;11.878;2024-01-30T04:05:34;-2.50;99.90
19397;DHT22;9834;48.076;11.878;2024-01-30T04:08:04;-2.60;99.90
19397;DHT22;9834;48.076;11.878;2024-01-30T04:10:31;-2.50;99.90
19397;DHT22;9834;48.076;11.878;2024-01-30T04:12:58;-2.50;99.90
19397;DHT22;9834;48.076;11.878;2024-01-30T04:15:26;-2.50;99.90
19397;DHT22;9834;48.076;11.878;2024-01-30T04:17:57;-2.50;99.90
19397;DHT22;9834;48.076;11.878;2024-01-30T04:20:26;-2.50;99.90
19397;DHT22;9834;48.076;11.878;2024-01-30T04:22:56;-2.50;99.90
19397;DHT22;9834;48.076;11.878;2024-01-30T04:25:23;-2.50;99.90
19397;DHT22;9834;48.076;11.878;2024-01-30T04:27:52;-2.50;99.90
19397;DHT22;9834;48.076;11.878;2024-01-30T04:30:21;-2.50;99.90
19397;DHT22;9834;48.076;11.878;2024-01-30T04:32:49;-2.20;99.90
19397;DHT22;9834;48.076;11.878;2024-01-30T04:35:18;-2.50;99.90
19397;DHT22;9834;48.076;11.878;2024-01-30T04:37:49;-2.50;99.90
19397;DHT22;9834;48.076;11.878;2024-01-30T04:40:19;-2.50;99.90
19397;DHT22;9834;48.076;11.878;2024-01-30T04:42:48;-2.60;99.90
19397;DHT22;9834;48.076;11.878;2024-01-30T04:45:16;-2.60;99.90
19397;DHT22;9834;48.076;11.878;2024-01-30T04:47:43;-2.40;99.90
19397;DHT22;9834;48.076;11.878;2024-01-30T04:50:11;-2.70;99.90
19397;DHT22;9834;48.076;11.878;2024-01-30T04:52:38;-2.70;99.90
19397;DHT22;9834;48.076;11.878;2024-01-30T04:55:07;-2.80;99.90
19397;DHT22;9834;48.076;11.878;2024-01-30T04:57:39;-2.80;99.90
19397;DHT22;9834;48.076;11.878;2024-01-30T05:00:08;-2.90;99.90
19397;DHT22;9834;48.076;11.878;2024-01-30T05:02:37;-2.90;99.90
19397;DHT22;9834;48.076;11.878;2024-01-30T05:05:05;-2.90;99.90
19397;DHT22;9834;48.076;11.878;2024-01-30T05:07:34;-2.90;99.90
19397;DHT22;9834;48.076;11.878;2024-01-30T05:10:21;-2.90;99.90
19397;DHT22;9834;48.076;11.878;2024-01-30T05:12:57;-2.90;99.90
19397;DHT22;9834;48.076;11.878;2024-01-30T05:15:26;-2.90;99.90
19397;DHT22;9834;48.076;11.878;2024-01-30T05:17:56;-2.90;99.90
19397;DHT22;9834;48.076;11.878;2024-01-30T05:20:23;-2.80;99.90
19397;DHT22;9834;48.076;11.878;2024-01-30T05:22:55;-2.70;99.90
19397;DHT22;9834;48.076;11.878;2024-01-30T05:25:23;-2.70;99.90
19397;DHT22;9834;48.076;11.878;2024-01-30T05:27:51;-2.60;99.90
19397;DHT22;9834;48.076;11.878;2024-01-30T05:30:20;-2.60;99.90
19397;DHT22;9834;48.076;11.878;2024-01-30T05:32:47;-2.00;99.90
19397;DHT22;9834;48.076;11.878;2024-01-30T05:35:15;-2.70;99.90
19397;DHT22;9834;48.076;11.878;2024-01-30T05:37:42;-2.70;99.90
19397;DHT22;9834;48.076;11.878;2024-01-30T05:40:11;-2.70;99.90
19397;DHT22;9834;48.076;11.878;2024-01-30T05:42:39;-2.70;99.90
19397;DHT22;9834;48.076;11.878;2024-01-30T05:45:07;-2.70;99.90
19397;DHT22;9834;48.076;11.878;2024-01-30T05:47:44;-2.70;99.90
19397;DHT22;9834;48.076;11.878;2024-01-30T05:50:17;-2.70;99.90
19397;DHT22;9834;48.076;11.878;2024-01-30T05:52:45;-2.70;99.90
19397;DHT22;9834;48.076;11.878;2024-01-30T05:55:12;-2.70;99.90
19397;DHT22;9834;48.076;11.878;2024-01-30T05:57:43;-2.70;99.90
19397;DHT22;9834;48.076;11.878;2024-01-30T06:00:21;-2.70;99.90
19397;DHT22;9834;48.076;11.878;2024-01-30T06:02:50;-2.70;99.90
19397;DHT22;9834;48.076;11.878;2024-01-30T06:05:18;-2.70;99.90
19397;DHT22;9834;48.076;11.878;2024-01-30T06:07:46;-2.70;99.90
19397;DHT22;9834;48.076;11.878;2024-01-30T06:10:13;-2.60;99.90
19397;DHT22;9834;48.076;11.878;2024-01-30T06:12:46;-2.60;99.90
19397;DHT22;9834;48.076;11.878;2024-01-30T06:15:16;-2.60;99.90
19397;DHT22;9834;48.076;11.878;2024-01-30T06:17:44;-2.70;99.90
19397;DHT22;9834;48.076;11.878;2024-01-30T06:20:15;-2.70;99.90
19397;DHT22;9834;48.076;11.878;2024-01-30T06:22:44;-2.70;99.90
19397;DHT22;9834;48.076;11.878;2024-01-30T06:25:17;-2.70;99.90
19397;DHT22;9834;48.076;11.878;2024-01-30T06:27:47;-2.70;99.90
19397;DHT22;9834;48.076;11.878;2024-01-30T06:30:15;-2.70;99.90
19397;DHT22;9834;48.076;11.878;2024-01-30T06:32:43;-2.70;99.90
19397;DHT22;9834;48.076;11.878;2024-01-30T06:35:15;-2.60;99.90
19397;DHT22;9834;48.076;11.878;2024-01-30T06:37:48;-2.60;99.90
19397;DHT22;9834;48.076;11.878;2024-01-30T06:40:18;-2.70;99.90
19397;DHT22;9834;48.076;11.878;2024-01-30T06:42:47;-2.60;99.90
19397;DHT22;9834;48.076;11.878;2024-01-30T06:45:20;-2.60;99.90
19397;DHT22;9834;48.076;11.878;2024-01-30T06:47:48;-2.60;99.90
19397;DHT22;9834;48.076;11.878;2024-01-30T06:50:31;-2.60;99.90
19397;DHT22;9834;48.076;11.878;2024-01-30T06:53:19;-2.60;99.90
19397;DHT22;9834;48.076;11.878;2024-01-30T06:55:47;-2.50;99.90
19397;DHT22;9834;48.076;11.878;2024-01-30T06:58:21;-2.50;99.90
19397;DHT22;9834;48.076;11.878;2024-01-30T07:00:48;-2.50;99.90
19397;DHT22;9834;48.076;11.878;2024-01-30T07:03:19;-2.40;99.90
19397;DHT22;9834;48.076;11.878;2024-01-30T07:05:48;-2.40;99.90
19397;DHT22;9834;48.076;11.878;2024-01-30T07:08:17;-2.30;99.90
19397;DHT22;9834;48.076;11.878;2024-01-30T07:10:48;-2.30;99.90
19397;DHT22;9834;48.076;11.878;2024-01-30T07:13:15;-2.20;99.90
19397;DHT22;9834;48.076;11.878;2024-01-30T07:15:43;-2.20;99.90
19397;DHT22;9834;48.076;11.878;2024-01-30T07:18:10;-2.20;99.90
19397;DHT22;9834;48.076;11.878;2024-01-30T07:20:39;-2.10;99.90
19397;DHT22;9834;48.076;11.878;2024-01-30T07:23:13;-2.10;99.90
19397;DHT22;9834;48.076;11.878;2024-01-30T07:25:42;-2.00;99.90
19397;DHT22;9834;48.076;11.878;2024-01-30T07:28:13;-1.90;99.90
19397;DHT22;9834;48.076;11.878;2024-01-30T07:30:48;-1.80;99.90
19397;DHT22;9834;48.076;11.878;2024-01-30T07:33:29;-1.70;99.90
19397;DHT22;9834;48.076;11.878;2024-01-30T07:36:02;-1.60;99.90
19397;DHT22;9834;48.076;11.878;2024-01-30T07:38:37;-1.50;99.90
19397;DHT22;9834;48.076;11.878;2024-01-30T07:41:08;-1.40;99.90
19397;DHT22;9834;48.076;11.878;2024-01-30T07:43:43;-1.30;99.90
19397;DHT22;9834;48.076;11.878;2024-01-30T07:46:15;-1.20;99.90
19397;DHT22;9834;48.076;11.878;2024-01-30T07:48:46;-1.20;99.90
19397;DHT22;9834;48.076;11.878;2024-01-30T07:51:27;-1.00;99.90
19397;DHT22;9834;48.076;11.878;2024-01-30T07:54:04;-0.90;99.90
19397;DHT22;9834;48.076;11.878;2024-01-30T07:56:34;-0.80;99.90
19397;DHT22;9834;48.076;11.878;2024-01-30T07:59:04;-0.70;99.90
19397;DHT22;9834;48.076;11.878;2024-01-30T08:01:37;-0.60;99.90
19397;DHT22;9834;48.076;11.878;2024-01-30T08:04:07;-0.50;99.90
19397;DHT22;9834;48.076;11.878;2024-01-30T08:06:46;-0.40;99.90
19397;DHT22;9834;48.076;11.878;2024-01-30T08:09:15;-0.20;99.90
19397;DHT22;9834;48.076;11.878;2024-01-30T08:11:42;-0.10;99.90
19397;DHT22;9834;48.076;11.878;2024-01-30T08:14:10;0.00;99.90
19397;DHT22;9834;48.076;11.878;2024-01-30T08:16:42;0.20;99.90
19397;DHT22;9834;48.076;11.878;2024-01-30T08:19:11;0.30;99.90
19397;DHT22;9834;48.076;11.878;2024-01-30T08:21:41;0.40;99.90
19397;DHT22;9834;48.076;11.878;2024-01-30T08:24:11;0.50;99.90
19397;DHT22;9834;48.076;11.878;2024-01-30T08:26:43;0.70;99.90
19397;DHT22;9834;48.076;11.878;2024-01-30T08:29:10;0.80;99.90
19397;DHT22;9834;48.076;11.878;2024-01-30T08:31:38;1.00;99.90
19397;DHT22;9834;48.076;11.878;2024-01-30T08:34:05;1.10;99.90
19397;DHT22;9834;48.076;11.878;2024-01-30T08:36:43;1.30;99.90
19397;DHT22;9834;48.076;11.878;2024-01-30T08:39:11;1.50;99.90
19397;DHT22;9834;48.076;11.878;2024-01-30T08:41:38;1.60;99.90
19397;DHT22;9834;48.076;11.878;2024-01-30T08:44:08;1.80;99.90
19397;DHT22;9834;48.076;11.878;2024-01-30T08:46:41;2.00;99.90
19397;DHT22;9834;48.076;11.878;2024-01-30T08:49:10;2.10;99.90
19397;DHT22;9834;48.076;11.878;2024-01-30T08:51:39;2.30;99.90
19397;DHT22;9834;48.076;11.878;2024-01-30T08:54:15;2.50;99.90
19397;DHT22;9834;48.076;11.878;2024-01-30T08:56:44;2.60;99.90
19397;DHT22;9834;48.076;11.878;2024-01-30T08:59:18;2.80;99.90
19397;DHT22;9834;48.076;11.878;2024-01-30T09:02:04;3.00;99.90
19397;DHT22;9834;48.076;11.878;2024-01-30T09:04:32;3.10;99.90
19397;DHT22;9834;48.076;11.878;2024-01-30T09:07:05;3.30;99.90
19397;DHT22;9834;48.076;11.878;2024-01-30T09:09:37;3.50;99.90
19397;DHT22;9834;48.076;11.878;2024-01-30T09:12:15;3.80;99.90
19397;DHT22;9834;48.076;11.878;2024-01-30T09:14:53;3.90;99.90
19397;DHT22;9834;48.076;11.878;2024-01-30T09:17:21;4.10;99.90
19397;DHT22;9834;48.076;11.878;2024-01-30T09:19:49;4.30;99.90
19397;DHT22;9834;48.076;11.878;2024-01-30T09:22:16;4.60;99.90
19397;DHT22;9834;48.076;11.878;2024-01-30T09:24:47;4.90;99.90
19397;DHT22;9834;48.076;11.878;2024-01-30T09:27:14;5.10;99.90
19397;DHT22;9834;48.076;11.878;2024-01-30T09:29:42;5.40;99.90
19397;DHT22;9834;48.076;11.878;2024-01-30T09:32:13;5.60;99.90
19397;DHT22;9834;48.076;11.878;2024-01-30T09:34:40;5.90;99.90
19397;DHT22;9834;48.076;11.878;2024-01-30T09:37:09;6.20;99.90
19397;DHT22;9834;48.076;11.878;2024-01-30T09:39:43;6.50;99.90
19397;DHT22;9834;48.076;11.878;2024-01-30T09:42:17;6.80;99.90
19397;DHT22;9834;48.076;11.878;2024-01-30T09:44:48;7.00;96.60
19397;DHT22;9834;48.076;11.878;2024-01-30T09:47:22;7.20;95.50
19397;DHT22;9834;48.076;11.878;2024-01-30T09:49:51;7.40;92.70
19397;DHT22;9834;48.076;11.878;2024-01-30T09:52:26;7.70;90.40
19397;DHT22;9834;48.076;11.878;2024-01-30T09:55:07;7.80;90.00
19397;DHT22;9834;48.076;11.878;2024-01-30T09:57:35;8.10;87.80
19397;DHT22;9834;48.076;11.878;2024-01-30T10:00:08;8.30;85.20
19397;DHT22;9834;48.076;11.878;2024-01-30T10:02:38;8.50;82.50
19397;DHT22;9834;48.076;11.878;2024-01-30T10:05:09;8.70;82.40
19397;DHT22;9834;48.076;11.878;2024-01-30T10:07:36;8.80;77.40
19397;DHT22;9834;48.076;11.878;2024-01-30T10:10:08;9.00;78.30
19397;DHT22;9834;48.076;11.878;2024-01-30T10:12:43;9.10;77.40
19397;DHT22;9834;48.076;11.878;2024-01-30T10:15:11;9.30;77.10
19397;DHT22;9834;48.076;11.878;2024-01-30T10:17:44;9.50;74.50
19397;DHT22;9834;48.076;11.878;2024-01-30T10:20:15;9.60;73.70
19397;DHT22;9834;48.076;11.878;2024-01-30T10:22:44;9.70;70.50
19397;DHT22;9834;48.076;11.878;2024-01-30T10:25:15;9.80;70.80
19397;DHT22;9834;48.076;11.878;2024-01-30T10:28:02;10.00;68.70
19397;DHT22;9834;48.076;11.878;2024-01-30T10:30:31;10.10;67.10
19397;DHT22;9834;48.076;11.878;2024-01-30T10:33:05;10.10;65.90
19397;DHT22;9834;48.076;11.878;2024-01-30T10:35:33;10.20;65.30
19397;DHT22;9834;48.076;11.878;2024-01-30T10:38:03;10.30;65.60
19397;DHT22;9834;48.076;11.878;2024-01-30T10:40:38;10.50;66.00
19397;DHT22;9834;48.076;11.878;2024-01-30T10:43:07;10.70;65.80
19397;DHT22;9834;48.076;11.878;2024-01-30T10:45:39;10.90;61.70
19397;DHT22;9834;48.076;11.878;2024-01-30T10:48:10;10.90;61.80
19397;DHT22;9834;48.076;11.878;2024-01-30T10:50:40;11.00;59.50
19397;DHT22;9834;48.076;11.878;2024-01-30T10:53:09;11.20;58.80
19397;DHT22;9834;48.076;11.878;2024-01-30T10:55:39;11.40;56.50
19397;DHT22;9834;48.076;11.878;2024-01-30T10:58:10;11.70;54.00
19397;DHT22;9834;48.076;11.878;2024-01-30T11:00:41;11.90;53.10
19397;DHT22;9834;48.076;11.878;2024-01-30T11:03:10;12.10;52.00
19397;DHT22;9834;48.076;11.878;2024-01-30T11:05:40;12.40;52.20
19397;DHT22;9834;48.076;11.878;2024-01-30T11:08:23;12.70;50.90
19397;DHT22;9834;48.076;11.878;2024-01-30T11:10:55;13.00;49.60
19397;DHT22;9834;48.076;11.878;2024-01-30T11:13:30;13.30;48.10
19397;DHT22;9834;48.076;11.878;2024-01-30T11:16:01;13.60;46.90
19397;DHT22;9834;48.076;11.878;2024-01-30T11:18:35;13.80;46.80
19397;DHT22;9834;48.076;11.878;2024-01-30T11:21:05;14.10;45.60
19397;DHT22;9834;48.076;11.878;2024-01-30T11:23:43;14.10;43.50
19397;DHT22;9834;48.076;11.878;2024-01-30T11:26:16;14.30;44.20
19397;DHT22;9834;48.076;11.878;2024-01-30T11:28:52;14.80;43.30
19397;DHT22;9834;48.076;11.878;2024-01-30T11:31:21;15.10;41.40
19397;DHT22;9834;48.076;11.878;2024-01-30T11:34:05;15.40;42.00
19397;DHT22;9834;48.076;11.878;2024-01-30T11:36:37;16.00;41.30
19397;DHT22;9834;48.076;11.878;2024-01-30T11:39:11;16.50;38.90
19397;DHT22;9834;48.076;11.878;2024-01-30T11:41:53;16.90;39.30
19397;DHT22;9834;48.076;11.878;2024-01-30T11:44:32;17.00;38.20
19397;DHT22;9834;48.076;11.878;2024-01-30T11:47:04;17.30;38.40
19397;DHT22;9834;48.076;11.878;2024-01-30T11:49:35;17.50;37.60
19397;DHT22;9834;48.076;11.878;2024-01-30T11:52:05;17.70;37.90
19397;DHT22;9834;48.076;11.878;2024-01-30T11:54:35;17.90;37.20
19397;DHT22;9834;48.076;11.878;2024-01-30T11:57:02;18.00;36.40
19397;DHT22;9834;48.076;11.878;2024-01-30T11:59:37;17.70;37.10
19397;DHT22;9834;48.076;11.878;2024-01-30T12:02:04;17.50;36.70
19397;DHT22;9834;48.076;11.878;2024-01-30T12:04:36;17.80;37.30
19397;DHT22;9834;48.076;11.878;2024-01-30T12:07:05;17.50;37.10
19397;DHT22;9834;48.076;11.878;2024-01-30T12:09:36;17.10;37.30
19397;DHT22;9834;48.076;11.878;2024-01-30T12:12:19;16.60;37.10
19397;DHT22;9834;48.076;11.878;2024-01-30T12:14:51;16.20;38.20
19397;DHT22;9834;48.076;11.878;2024-01-30T12:17:28;16.00;38.00
19397;DHT22;9834;48.076;11.878;2024-01-30T12:20:10;15.90;39.60
19397;DHT22;9834;48.076;11.878;2024-01-30T12:22:38;15.90;39.00
19397;DHT22;9834;48.076;11.878;2024-01-30T12:25:08;16.10;38.40
19397;DHT22;9834;48.076;11.878;2024-01-30T12:27:43;16.10;38.50
19397;DHT22;9834;48.076;11.878;2024-01-30T12:30:15;16.00;38.80
19397;DHT22;9834;48.076;11.878;2024-01-30T12:32:44;15.70;38.50
19397;DHT22;9834;48.076;11.878;2024-01-30T12:35:15;15.50;39.50
19397;DHT22;9834;48.076;11.878;2024-01-30T12:37:44;15.80;39.80
19397;DHT22;9834;48.076;11.878;2024-01-30T12:40:14;16.30;39.00
19397;DHT22;9834;48.076;11.878;2024-01-30T12:42:46;17.00;39.10
19397;DHT22;9834;48.076;11.878;2024-01-30T12:45:20;18.10;38.50
19397;DHT22;9834;48.076;11.878;2024-01-30T12:47:51;18.80;36.20
19397;DHT22;9834;48.076;11.878;2024-01-30T12:50:31;19.40;35.50
19397;DHT22;9834;48.076;11.878;2024-01-30T12:52:59;19.80;34.20
19397;DHT22;9834;48.076;11.878;2024-01-30T12:55:35;20.30;34.10
19397;DHT22;9834;48.076;11.878;2024-01-30T12:58:04;20.70;33.30
19397;DHT22;9834;48.076;11.878;2024-01-30T13:00:32;20.80;33.40
19397;DHT22;9834;48.076;11.878;2024-01-30T13:03:00;21.00;32.90
19397;DHT22;9834;48.076;11.878;2024-01-30T13:05:35;21.30;33.10
19397;DHT22;9834;48.076;11.878;2024-01-30T13:08:02;21.90;33.60
19397;DHT22;9834;48.076;11.878;2024-01-30T13:10:30;22.10;31.50
19397;DHT22;9834;48.076;11.878;2024-01-30T13:13:03;22.50;30.30
19397;DHT22;9834;48.076;11.878;2024-01-30T13:15:32;22.40;31.50
19397;DHT22;9834;48.076;11.878;2024-01-30T13:18:03;23.10;30.70
19397;DHT22;9834;48.076;11.878;2024-01-30T13:20:32;23.30;33.30
19397;DHT22;9834;48.076;11.878;2024-01-30T13:23:00;23.70;29.90
19397;DHT22;9834;48.076;11.878;2024-01-30T13:25:28;24.30;29.40
19397;DHT22;9834;48.076;11.878;2024-01-30T13:27:56;24.70;28.90
19397;DHT22;9834;48.076;11.878;2024-01-30T13:30:26;25.20;28.50
19397;DHT22;9834;48.076;11.878;2024-01-30T13:32:53;25.50;27.60
19397;DHT22;9834;48.076;11.878;2024-01-30T13:35:24;25.50;27.50
19397;DHT22;9834;48.076;11.878;2024-01-30T13:37:53;25.90;27.30
19397;DHT22;9834;48.076;11.878;2024-01-30T13:40:24;25.90;25.80
19397;DHT22;9834;48.076;11.878;2024-01-30T13:42:55;25.70;25.30
19397;DHT22;9834;48.076;11.878;2024-01-30T13:45:23;25.40;25.50
19397;DHT22;9834;48.076;11.878;2024-01-30T13:47:53;25.20;26.10
19397;DHT22;9834;48.076;11.878;2024-01-30T13:50:20;25.10;26.50
19397;DHT22;9834;48.076;11.878;2024-01-30T13:52:48;25.30;26.00
19397;DHT22;9834;48.076;11.878;2024-01-30T13:55:17;25.10;26.60
19397;DHT22;9834;48.076;11.878;2024-01-30T13:57:44;25.20;26.10
19397;DHT22;9834;48.076;11.878;2024-01-30T14:00:13;25.30;26.30
19397;DHT22;9834;48.076;11.878;2024-01-30T14:02:42;24.90;26.00
19397;DHT22;9834;48.076;11.878;2024-01-30T14:05:12;24.80;26.40
19397;DHT22;9834;48.076;11.878;2024-01-30T14:07:40;24.80;26.80
19397;DHT22;9834;48.076;11.878;2024-01-30T14:10:17;25.20;26.00
19397;DHT22;9834;48.076;11.878;2024-01-30T14:12:47;25.70;24.90
19397;DHT22;9834;48.076;11.878;2024-01-30T14:15:15;26.00;25.00
19397;DHT22;9834;48.076;11.878;2024-01-30T14:17:44;26.70;24.80
19397;DHT22;9834;48.076;11.878;2024-01-30T14:20:16;27.10;24.40
19397;DHT22;9834;48.076;11.878;2024-01-30T14:22:47;27.20;24.90
19397;DHT22;9834;48.076;11.878;2024-01-30T14:25:16;27.60;24.90
19397;DHT22;9834;48.076;11.878;2024-01-30T14:27:43;27.80;23.80
19397;DHT22;9834;48.076;11.878;2024-01-30T14:30:14;27.30;23.50
19397;DHT22;9834;48.076;11.878;2024-01-30T14:32:41;27.10;24.70
19397;DHT22;9834;48.076;11.878;2024-01-30T14:35:10;27.10;24.60
19397;DHT22;9834;48.076;11.878;2024-01-30T14:37:39;26.90;24.80
19397;DHT22;9834;48.076;11.878;2024-01-30T14:40:14;26.30;25.50
19397;DHT22;9834;48.076;11.878;2024-01-30T14:42:47;25.60;25.80
19397;DHT22;9834;48.076;11.878;2024-01-30T14:45:17;24.20;27.10
19397;DHT22;9834;48.076;11.878;2024-01-30T14:47:46;23.70;27.80
19397;DHT22;9834;48.076;11.878;2024-01-30T14:50:14;23.70;30.00
19397;DHT22;9834;48.076;11.878;2024-01-30T14:52:45;24.00;29.20
19397;DHT22;9834;48.076;11.878;2024-01-30T14:55:13;23.70;32.20
19397;DHT22;9834;48.076;11.878;2024-01-30T14:57:42;23.00;33.30
19397;DHT22;9834;48.076;11.878;2024-01-30T15:00:12;22.10;34.20
19397;DHT22;9834;48.076;11.878;2024-01-30T15:02:39;21.10;34.20
19397;DHT22;9834;48.076;11.878;2024-01-30T15:05:06;20.00;37.00
19397;DHT22;9834;48.076;11.878;2024-01-30T15:07:36;19.20;38.40
19397;DHT22;9834;48.076;11.878;2024-01-30T15:10:12;18.60;39.40
19397;DHT22;9834;48.076;11.878;2024-01-30T15:12:39;17.90;39.80
19397;DHT22;9834;48.076;11.878;2024-01-30T15:15:09;17.60;40.60
19397;DHT22;9834;48.076;11.878;2024-01-30T15:17:36;17.30;41.50
19397;DHT22;9834;48.076;11.878;2024-01-30T15:20:05;17.00;41.80
19397;DHT22;9834;48.076;11.878;2024-01-30T15:22:36;16.60;42.90
19397;DHT22;9834;48.076;11.878;2024-01-30T15:25:06;16.10;43.90
19397;DHT22;9834;48.076;11.878;2024-01-30T15:27:34;15.70;45.10
19397;DHT22;9834;48.076;11.878;2024-01-30T15:30:01;14.90;46.40
19397;DHT22;9834;48.076;11.878;2024-01-30T15:32:36;14.00;46.70
19397;DHT22;9834;48.076;11.878;2024-01-30T15:35:07;13.30;48.50
19397;DHT22;9834;48.076;11.878;2024-01-30T15:37:35;12.60;50.00
19397;DHT22;9834;48.076;11.878;2024-01-30T15:40:02;11.90;50.80
19397;DHT22;9834;48.076;11.878;2024-01-30T15:42:35;11.50;52.10
19397;DHT22;9834;48.076;11.878;2024-01-30T15:45:03;11.00;53.70
19397;DHT22;9834;48.076;11.878;2024-01-30T15:47:34;10.50;55.10
19397;DHT22;9834;48.076;11.878;2024-01-30T15:50:03;10.10;56.10
19397;DHT22;9834;48.076;11.878;2024-01-30T15:52:32;9.90;57.80